Time;durP1;ratioP1;P1;durP2;ratioP2;P2;SDS_P1;SDS_P2;PMS_P1;PMS_P2;Temp;Humidity;BMP_temperature;BMP_pressure;BME280_temperature;BME280_humidity;BME280_pressure;Samples;Min_cycle;Max_cycle;Signal;HPM_P1;HPM_P2
2023/10/29 00:00:34;;;;;;;0.90;0.70;;;18.30;99.90;;;18.09;59.37;99105.19;4923262;28;97774;-73
2023/10/29 00:03:00;;;;;;;0.93;0.60;;;18.30;99.90;;;18.10;59.63;99107.72;4918044;28;97502;-73
2023/10/29 00:05:26;;;;;;;1.33;0.60;;;18.30;99.90;;;18.13;59.22;99107.41;4910318;28;96940;-74
2023/10/29 00:07:52;;;;;;;1.77;0.60;;;18.30;99.90;;;18.08;59.57;99098.13;4929494;28;98637;-73
2023/10/29 00:10:17;;;;;;;3.37;0.70;;;18.30;99.90;;;18.04;59.75;99078.91;4908453;28;117854;-73
2023/10/29 00:12:43;;;;;;;0.83;0.50;;;18.30;99.90;;;18.03;59.73;99085.22;4917088;28;97422;-74
2023/10/29 00:15:10;;;;;;;0.70;0.47;;;18.30;99.90;;;18.07;59.56;99091.94;4916713;28;97089;-73
2023/10/29 00:17:36;;;;;;;0.90;0.50;;;18.30;99.90;;;18.06;59.77;99079.59;4910190;28;99183;-73
2023/10/29 00:20:06;;;;;;;0.93;0.50;;;18.30;99.90;;;18.05;59.63;99091.25;4911250;28;97632;-73
2023/10/29 00:22:32;;;;;;;0.60;0.57;;;18.30;99.90;;;18.11;59.41;99074.72;4916699;28;97422;-72
2023/10/29 00:24:58;;;;;;;1.50;0.57;;;18.30;99.90;;;18.12;59.61;99089.72;4915702;28;97233;-73
2023/10/29 00:27:24;;;;;;;0.57;0.30;;;18.30;99.90;;;18.14;59.59;99090.44;4912150;28;97709;-74
2023/10/29 00:29:50;;;;;;;1.03;0.60;;;18.30;99.90;;;18.12;59.40;99083.56;4921765;28;101649;-72
2023/10/29 00:32:18;;;;;;;0.60;0.50;;;18.20;99.90;;;18.12;59.48;99084.41;4922262;28;97078;-73
2023/10/29 00:34:46;;;;;;;1.47;0.73;;;18.20;99.90;;;18.13;59.41;99080.75;4919879;28;105407;-73
2023/10/29 00:37:12;;;;;;;1.33;0.53;;;18.30;99.90;;;18.17;59.39;99085.78;4916065;28;99789;-73
2023/10/29 00:39:39;;;;;;;0.30;0.30;;;18.30;99.90;;;18.17;59.37;99069.78;4908977;28;99266;-74
2023/10/29 00:42:05;;;;;;;0.93;0.60;;;18.30;99.90;;;18.17;59.37;99077.78;4916865;28;96999;-73
2023/10/29 00:44:31;;;;;;;0.97;0.60;;;18.40;99.90;;;18.20;59.26;99077.50;4914165;28;97529;-73
2023/10/29 00:46:58;;;;;;;0.47;0.40;;;18.40;99.90;;;18.25;58.71;99085.94;4913495;28;124397;-73
2023/10/29 00:49:24;;;;;;;0.87;0.50;;;18.40;99.90;;;18.24;58.71;99081.59;4920387;28;100111;-73
2023/10/29 00:51:50;;;;;;;1.30;0.30;;;18.30;99.90;;;18.22;59.21;99075.53;4918589;28;113417;-73
2023/10/29 00:54:17;;;;;;;1.30;0.50;;;18.30;99.90;;;18.21;59.09;99076.50;4915317;28;97793;-73
2023/10/29 00:56:43;;;;;;;0.40;0.40;;;18.40;99.90;;;18.20;59.28;99067.66;4907463;28;101199;-73
2023/10/29 00:59:11;;;;;;;1.13;0.63;;;18.30;99.90;;;18.13;59.35;99070.06;4918891;28;96939;-73
2023/10/29 01:01:38;;;;;;;1.77;0.50;;;18.40;99.90;;;18.12;59.56;99065.72;4922055;28;97343;-73
2023/10/29 01:04:04;;;;;;;0.67;0.60;;;18.40;99.90;;;18.18;59.27;99055.44;4899488;28;97635;-72
2023/10/29 01:06:38;;;;;;;1.30;0.43;;;18.30;99.90;;;18.13;59.40;99046.06;4912632;28;97677;-73
2023/10/29 01:09:06;;;;;;;0.93;0.40;;;18.30;99.90;;;18.13;59.56;99043.38;4901726;28;104572;-73
2023/10/29 01:11:32;;;;;;;0.67;0.50;;;18.30;99.90;;;18.16;59.39;99036.91;4912171;28;97147;-73
2023/10/29 01:13:58;;;;;;;1.33;0.60;;;18.40;99.90;;;18.18;59.34;99034.09;4918395;28;97512;-74
2023/10/29 01:16:24;;;;;;;1.53;0.50;;;18.40;99.90;;;18.16;59.42;99047.59;4919374;28;99859;-73
2023/10/29 01:18:50;;;;;;;0.40;0.30;;;18.40;99.90;;;18.18;59.25;99039.44;4915818;28;110351;-73
2023/10/29 01:21:16;;;;;;;1.60;0.77;;;18.40;99.90;;;18.18;59.14;99034.09;4919099;28;106011;-73
2023/10/29 01:23:42;;;;;;;0.73;0.40;;;18.30;99.90;;;18.17;59.39;99037.75;4913762;28;97345;-73
2023/10/29 01:26:07;;;;;;;1.43;0.50;;;18.30;99.90;;;18.20;59.25;99026.78;4916822;28;97706;-73
2023/10/29 01:28:33;;;;;;;0.53;0.40;;;18.30;99.90;;;18.20;59.15;99026.78;4919798;28;97210;-73
2023/10/29 01:31:00;;;;;;;0.43;0.40;;;18.30;99.90;;;18.19;59.34;99022.44;4912536;28;97962;-73
2023/10/29 01:33:26;;;;;;;0.63;0.40;;;18.30;99.90;;;18.23;58.58;99037.22;4912117;28;97279;-74
2023/10/29 01:35:53;;;;;;;0.40;0.40;;;18.30;99.90;;;18.14;59.43;99033.56;4915432;28;97881;-73
2023/10/29 01:38:18;;;;;;;0.40;0.40;;;18.20;99.90;;;18.11;59.33;99026.69;4913919;28;97748;-73
2023/10/29 01:40:44;;;;;;;1.20;0.43;;;18.20;99.90;;;18.16;59.51;99028.06;4914843;28;97955;-73
2023/10/29 01:43:10;;;;;;;0.57;0.30;;;18.30;99.90;;;18.16;59.30;99030.75;4912699;28;114708;-73
2023/10/29 01:45:38;;;;;;;1.40;0.67;;;18.30;99.90;;;18.14;59.44;99029.06;4917061;28;105313;-73
2023/10/29 01:48:04;;;;;;;0.50;0.30;;;18.30;99.90;;;18.11;59.51;99024.00;4915006;28;101351;-73
2023/10/29 01:50:30;;;;;;;0.23;0.23;;;18.30;99.90;;;18.17;59.38;99016.41;4928325;28;97116;-73
2023/10/29 01:52:57;;;;;;;0.70;0.57;;;18.30;99.90;;;18.10;58.88;99017.00;4917078;28;97230;-74
2023/10/29 01:55:22;;;;;;;1.20;0.50;;;18.20;99.90;;;18.10;59.68;99005.47;4915819;28;98169;-73
2023/10/29 01:57:49;;;;;;;0.50;0.30;;;18.20;99.90;;;18.06;59.77;99002.22;4920128;28;100927;-73
2023/10/29 02:00:15;;;;;;;0.20;0.20;;;18.10;99.90;;;18.03;59.83;98994.53;4911064;28;97736;-73
2023/10/29 02:02:41;;;;;;;0.30;0.30;;;18.10;99.90;;;18.05;59.67;98992.56;4922391;28;97579;-73
2023/10/29 02:05:07;;;;;;;1.33;0.57;;;18.20;99.90;;;18.08;59.51;98986.94;4919931;28;99532;-73
2023/10/29 02:07:34;;;;;;;1.70;0.40;;;18.20;99.90;;;18.10;59.35;98984.97;4910993;28;97871;-73
2023/10/29 02:09:59;;;;;;;0.70;0.30;;;18.20;99.90;;;18.13;58.94;98982.03;4921049;28;97132;-73
2023/10/29 02:12:27;;;;;;;1.10;0.50;;;18.20;99.90;;;18.12;59.03;98996.34;4922580;28;97097;-74
2023/10/29 02:14:53;;;;;;;0.67;0.33;;;18.20;99.90;;;18.08;59.39;98994.09;4914607;28;98045;-73
2023/10/29 02:17:18;;;;;;;0.43;0.20;;;18.10;99.90;;;18.03;59.88;98975.84;4911531;28;107643;-73
2023/10/29 02:19:44;;;;;;;0.70;0.33;;;18.10;99.90;;;18.07;59.55;98969.22;4917037;28;97313;-73
2023/10/29 02:22:10;;;;;;;0.83;0.50;;;18.20;99.90;;;18.10;59.40;98968.97;4919940;28;98166;-73
2023/10/29 02:24:36;;;;;;;2.53;0.33;;;18.20;99.90;;;18.09;59.70;98950.44;4924700;28;99720;-73
2023/10/29 02:27:02;;;;;;;0.93;0.40;;;18.20;99.90;;;18.08;59.43;98946.94;4918872;28;96747;-73
2023/10/29 02:29:27;;;;;;;0.53;0.33;;;18.20;99.90;;;18.10;59.39;98952.97;4918559;28;97070;-73
2023/10/29 02:31:53;;;;;;;1.33;0.53;;;18.20;99.90;;;18.03;59.76;98953.66;4920674;28;97547;-73
2023/10/29 02:34:19;;;;;;;0.87;0.50;;;18.10;99.90;;;18.02;59.79;98958.16;4910691;28;98309;-73
2023/10/29 02:36:45;;;;;;;1.87;0.50;;;18.00;99.90;;;18.03;59.69;98957.16;4920645;28;97518;-73
2023/10/29 02:39:12;;;;;;;2.00;0.40;;;18.10;99.90;;;17.96;60.06;98965.91;4914587;28;97349;-73
2023/10/29 02:41:38;;;;;;;1.07;0.50;;;18.00;99.90;;;17.92;60.37;98959.16;4931289;28;97865;-73
2023/10/29 02:44:04;;;;;;;0.60;0.30;;;17.90;99.90;;;17.90;60.27;98955.78;4912548;28;97532;-73
2023/10/29 02:46:30;;;;;;;1.57;0.50;;;17.90;99.90;;;17.92;60.32;98960.00;4910593;28;97006;-73
2023/10/29 02:48:56;;;;;;;0.50;0.40;;;17.90;99.90;;;17.87;60.28;98935.59;4916256;28;97010;-73
2023/10/29 02:51:22;;;;;;;0.40;0.33;;;17.90;99.90;;;17.88;60.33;98947.09;4918998;28;97687;-73
2023/10/29 02:53:48;;;;;;;1.17;0.60;;;17.80;99.90;;;17.91;60.06;98947.63;4915187;28;97973;-73
2023/10/29 02:56:14;;;;;;;0.80;0.33;;;17.90;99.90;;;17.92;59.92;98943.97;4915948;28;99396;-73
2023/10/29 02:58:39;;;;;;;1.10;0.60;;;18.00;99.90;;;17.90;59.70;98943.28;4919734;28;98911;-73
2023/10/29 03:01:09;;;;;;;0.60;0.40;;;18.00;99.90;;;17.95;59.87;98948.22;4922131;28;100571;-73
2023/10/29 03:03:39;;;;;;;1.20;0.40;;;18.00;99.90;;;17.99;60.29;98947.78;4920397;28;115221;-72
2023/10/29 03:06:06;;;;;;;1.40;0.40;;;18.10;99.90;;;18.00;59.32;98944.13;4914838;28;101264;-71
2023/10/29 03:08:33;;;;;;;0.30;0.20;;;18.10;99.90;;;17.99;59.65;98934.44;4909154;28;97141;-73
2023/10/29 03:11:00;;;;;;;0.73;0.50;;;18.10;99.90;;;17.93;60.35;98935.00;4908816;28;97550;-73
2023/10/29 03:13:26;;;;;;;0.60;0.30;;;18.00;99.90;;;17.92;60.04;98943.16;4914629;28;97614;-74
2023/10/29 03:15:51;;;;;;;1.10;0.50;;;18.00;99.90;;;17.96;59.81;98945.41;4920704;28;109361;-73
2023/10/29 03:18:17;;;;;;;0.63;0.37;;;18.00;99.90;;;17.95;60.16;98932.22;4918455;28;97180;-73
2023/10/29 03:20:43;;;;;;;0.70;0.40;;;18.00;99.90;;;17.97;59.98;98931.09;4906196;28;97096;-73
2023/10/29 03:23:09;;;;;;;0.40;0.40;;;18.00;99.90;;;17.98;60.00;98911.44;4931312;23;97227;-50
2023/10/29 03:25:35;;;;;;;2.53;0.60;;;18.00;99.90;;;17.94;60.14;98907.38;4937760;27;101849;-48
2023/10/29 03:28:01;;;;;;;1.67;0.47;;;18.10;99.90;;;18.00;60.03;98940.63;4944472;28;97135;-49
2023/10/29 03:30:27;;;;;;;0.77;0.33;;;18.10;99.90;;;17.95;60.04;98941.06;4942794;28;97063;-46
2023/10/29 03:32:52;;;;;;;0.70;0.27;;;18.00;99.90;;;17.98;60.19;98943.44;4944507;27;97472;-46
2023/10/29 03:35:18;;;;;;;0.40;0.30;;;18.10;99.90;;;17.96;60.09;98929.41;4948167;27;97554;-50
2023/10/29 03:37:44;;;;;;;0.83;0.40;;;18.00;99.90;;;17.92;59.58;98933.31;4944703;28;97610;-46
2023/10/29 03:40:10;;;;;;;0.90;0.50;;;18.10;99.90;;;18.00;60.04;98924.63;4940243;28;97649;-50
2023/10/29 03:42:36;;;;;;;0.37;0.30;;;18.10;99.90;;;18.00;60.04;98920.13;4945346;28;100880;-45
2023/10/29 03:45:03;;;;;;;1.60;0.50;;;18.10;99.90;;;17.96;60.08;98916.06;4954586;28;97201;-52
2023/10/29 03:47:29;;;;;;;1.53;0.43;;;18.10;99.90;;;18.04;59.95;98915.34;4940885;28;97421;-45
2023/10/29 03:49:57;;;;;;;0.77;0.40;;;18.20;99.90;;;18.05;59.83;98912.53;4961227;28;99047;-48
2023/10/29 03:52:23;;;;;;;0.27;0.20;;;18.20;99.90;;;18.06;59.97;98908.88;4944461;28;100717;-50
2023/10/29 03:54:49;;;;;;;1.47;0.30;;;18.20;99.90;;;18.00;60.10;98925.47;4941591;27;99422;-48
2023/10/29 03:57:15;;;;;;;0.40;0.30;;;18.10;99.90;;;18.04;59.86;98913.50;4947039;27;99066;-48
2023/10/29 03:59:40;;;;;;;0.87;0.40;;;18.10;99.90;;;18.03;59.56;98929.66;4948701;27;110942;-48
2023/10/29 04:02:06;;;;;;;0.60;0.30;;;18.10;99.90;;;18.02;59.93;98930.66;4951557;28;97194;-50
2023/10/29 04:04:33;;;;;;;1.00;0.40;;;18.00;99.90;;;18.00;60.27;98946.78;4939506;28;97293;-47
2023/10/29 04:07:00;;;;;;;0.63;0.23;;;18.00;99.90;;;17.98;60.13;98916.75;4952825;27;106753;-52
2023/10/29 04:09:25;;;;;;;0.57;0.40;;;18.00;99.90;;;17.91;60.23;98902.31;4946108;28;97356;-48
2023/10/29 04:11:52;;;;;;;0.30;0.30;;;18.10;99.90;;;17.92;60.46;98890.66;4948301;28;105414;-45
2023/10/29 04:14:17;;;;;;;0.87;0.40;;;18.10;99.90;;;17.96;60.31;98876.06;4946236;28;97461;-47
2023/10/29 04:16:43;;;;;;;0.20;0.20;;;18.10;99.90;;;17.98;60.08;98882.09;4941839;28;97098;-50
2023/10/29 04:19:09;;;;;;;0.50;0.30;;;18.20;99.90;;;17.98;59.94;98882.09;4946626;27;100596;-45
2023/10/29 04:21:35;;;;;;;0.43;0.20;;;18.20;99.90;;;17.98;60.01;98884.75;4942228;28;102100;-49
2023/10/29 04:24:00;;;;;;;0.27;0.27;;;18.20;99.90;;;18.03;59.75;98903.81;4942823;27;103469;-49
2023/10/29 04:26:26;;;;;;;0.50;0.33;;;18.20;99.90;;;18.05;59.46;98920.53;4948266;28;97385;-47
2023/10/29 04:28:52;;;;;;;0.50;0.20;;;18.20;99.90;;;18.01;60.15;98905.78;4939755;28;97563;-49
2023/10/29 04:31:18;;;;;;;0.30;0.13;;;18.20;99.90;;;18.05;59.73;98912.53;4942755;28;97869;-48
2023/10/29 04:33:45;;;;;;;0.50;0.30;;;18.20;99.90;;;18.04;59.97;98921.50;4943831;28;107838;-47
2023/10/29 04:36:24;;;;;;;2.77;0.37;;;18.10;99.90;;;18.08;59.68;98906.91;4948702;28;97259;-47
2023/10/29 04:38:50;;;;;;;0.50;0.30;;;18.10;99.90;;;18.09;59.77;98926.44;4944311;28;97003;-45
2023/10/29 04:41:17;;;;;;;0.57;0.20;;;18.20;99.90;;;18.12;59.33;98916.31;4944139;27;97711;-45
2023/10/29 04:43:42;;;;;;;2.60;0.30;;;18.20;99.90;;;18.08;60.70;98933.59;4944653;27;97398;-50
2023/10/29 04:46:13;;;;;;;0.23;0.17;;;18.10;99.90;;;18.08;59.45;98933.59;4948081;28;97402;-52
2023/10/29 04:48:40;;;;;;;0.50;0.30;;;18.10;99.90;;;18.07;59.84;98945.22;4945633;27;97194;-50
2023/10/29 04:51:06;;;;;;;1.57;0.43;;;18.10;99.90;;;18.03;59.63;98943.84;4949379;27;100188;-49
2023/10/29 04:53:36;;;;;;;0.23;0.20;;;18.00;99.90;;;18.07;60.04;98944.38;4944057;27;97439;-45
2023/10/29 04:56:03;;;;;;;2.23;0.40;;;18.00;99.90;;;18.05;59.91;98939.19;4951714;27;97106;-45
2023/10/29 04:58:33;;;;;;;1.00;0.50;;;18.10;99.90;;;18.06;59.88;98945.38;4951258;27;97255;-49
2023/10/29 05:00:59;;;;;;;0.50;0.30;;;18.00;99.90;;;18.03;59.75;98946.50;4947471;28;98635;-51
2023/10/29 05:03:27;;;;;;;0.50;0.40;;;18.00;99.90;;;18.09;59.59;98951.28;4947309;27;97003;-47
2023/10/29 05:05:54;;;;;;;1.03;0.43;;;18.10;99.90;;;18.08;59.76;98944.28;4942104;28;96998;-49
2023/10/29 05:08:20;;;;;;;0.60;0.30;;;18.10;99.90;;;18.07;59.78;98947.88;4943698;28;97097;-45
2023/10/29 05:10:46;;;;;;;1.20;0.33;;;18.10;99.90;;;18.08;60.06;98944.28;4947146;28;97564;-47
2023/10/29 05:13:13;;;;;;;2.20;0.63;;;18.10;99.90;;;18.04;59.96;98952.69;4944879;28;97013;-48
2023/10/29 05:15:39;;;;;;;1.13;0.50;;;18.00;99.90;;;17.92;59.38;98943.97;4953053;27;96476;-47
2023/10/29 05:18:05;;;;;;;1.23;0.60;;;17.90;99.90;;;17.89;59.23;98948.78;4951078;27;97530;-48
2023/10/29 05:20:31;;;;;;;0.20;0.20;;;17.80;99.90;;;17.78;60.41;98947.09;4951391;27;116498;-46
2023/10/29 05:22:57;;;;;;;1.23;0.50;;;17.70;99.90;;;17.75;60.78;98958.88;4945750;27;109348;-45
2023/10/29 05:25:23;;;;;;;0.63;0.30;;;17.70;99.90;;;17.66;59.39;98961.53;4946693;28;97197;-47
2023/10/29 05:27:53;;;;;;;0.30;0.30;;;17.60;99.90;;;17.55;59.42;98962.50;4945608;27;99357;-46
2023/10/29 05:30:19;;;;;;;0.50;0.23;;;17.50;99.90;;;17.49;60.41;98955.91;4947558;28;97554;-47
2023/10/29 05:32:45;;;;;;;1.03;0.40;;;17.40;99.90;;;17.49;60.51;98953.22;4944883;28;100229;-46
2023/10/29 05:35:11;;;;;;;2.13;0.37;;;17.40;99.90;;;17.53;61.24;98953.81;4944027;28;97300;-45
2023/10/29 05:37:37;;;;;;;1.80;0.30;;;17.50;99.90;;;17.49;60.78;98947.06;4944533;28;101090;-46
2023/10/29 05:40:04;;;;;;;1.43;0.40;;;17.40;99.90;;;17.51;60.43;98967.28;4930608;28;110642;-48
2023/10/29 05:42:34;;;;;;;1.07;0.30;;;17.50;99.90;;;17.43;59.47;98971.63;4943057;28;102902;-50
2023/10/29 05:45:00;;;;;;;2.00;0.30;;;17.40;99.90;;;17.38;59.54;98969.38;4953728;27;97543;-51
2023/10/29 05:47:26;;;;;;;0.30;0.20;;;17.30;99.90;;;17.46;61.51;98966.84;4946077;28;97620;-47
2023/10/29 05:49:54;;;;;;;2.23;0.53;;;17.40;99.90;;;17.44;59.77;98962.63;4943993;27;97233;-45
2023/10/29 05:52:20;;;;;;;0.83;0.30;;;17.40;99.90;;;17.42;60.12;98973.44;4943948;27;98157;-48
2023/10/29 05:54:46;;;;;;;1.17;0.40;;;17.40;99.90;;;17.41;59.88;98970.91;4950576;28;99765;-48
2023/10/29 05:57:12;;;;;;;0.33;0.20;;;17.40;99.90;;;17.38;59.60;98982.69;4940796;28;96959;-49
2023/10/29 05:59:38;;;;;;;1.80;0.30;;;17.40;99.90;;;17.45;60.29;98985.66;4950198;28;97472;-49
2023/10/29 06:02:04;;;;;;;0.53;0.30;;;17.40;99.90;;;17.44;60.54;98987.47;4946815;28;97613;-47
2023/10/29 06:04:30;;;;;;;0.33;0.30;;;17.40;99.90;;;17.40;59.44;98985.22;4950642;28;104020;-57
2023/10/29 06:06:55;;;;;;;0.40;0.30;;;17.40;99.90;;;17.48;60.58;98999.53;4939832;28;97396;-47
2023/10/29 06:09:21;;;;;;;0.70;0.30;;;17.40;99.90;;;17.44;60.62;98986.63;4945190;27;97651;-45
2023/10/29 06:11:47;;;;;;;0.47;0.37;;;17.40;99.90;;;17.50;60.45;98994.06;4947445;27;111544;-45
2023/10/29 06:14:13;;;;;;;0.97;0.40;;;17.40;99.90;;;17.54;60.73;98995.47;4951054;27;97141;-46
2023/10/29 06:16:39;;;;;;;0.43;0.20;;;17.50;99.90;;;17.45;59.48;98994.47;4944930;28;97152;-45
2023/10/29 06:19:05;;;;;;;0.53;0.30;;;17.40;99.90;;;17.53;60.05;99002.63;4952267;27;99860;-48
2023/10/29 06:21:31;;;;;;;0.37;0.27;;;17.50;99.90;;;17.50;60.99;98997.59;4944029;28;97553;-48
2023/10/29 06:23:57;;;;;;;2.20;0.20;;;17.50;99.90;;;17.54;59.74;99006.97;4942226;28;97088;-45
2023/10/29 06:26:23;;;;;;;1.40;0.30;;;17.50;99.90;;;17.53;59.97;99018.63;4944404;28;97395;-47
2023/10/29 06:28:49;;;;;;;0.20;0.10;;;17.50;99.90;;;17.49;58.54;99022.53;4941118;28;97349;-47
2023/10/29 06:31:15;;;;;;;0.63;0.40;;;17.50;99.90;;;17.58;60.82;99022.69;4947808;28;97283;-47
2023/10/29 06:33:41;;;;;;;1.40;0.20;;;17.50;99.90;;;17.51;58.91;99020.59;4953215;27;97241;-48
2023/10/29 06:36:08;;;;;;;0.90;0.30;;;17.50;99.90;;;17.52;58.96;99032.94;4949613;28;97317;-45
2023/10/29 06:38:35;;;;;;;1.97;0.30;;;17.50;99.90;;;17.58;58.85;99034.19;4948096;27;98878;-47
2023/10/29 06:41:01;;;;;;;0.50;0.30;;;17.50;99.90;;;17.60;59.67;99050.06;4949013;28;98746;-52
2023/10/29 06:43:27;;;;;;;0.60;0.30;;;17.50;99.90;;;17.57;58.73;99058.34;4954981;27;97511;-50
2023/10/29 06:45:52;;;;;;;0.50;0.20;;;17.50;99.90;;;17.54;58.61;99057.63;4950857;28;97460;-49
2023/10/29 06:48:18;;;;;;;1.43;0.50;;;17.60;99.90;;;17.50;60.96;99045.56;4945264;28;98607;-47
2023/10/29 06:50:44;;;;;;;1.10;0.40;;;17.40;99.90;;;17.43;58.42;99047.09;4946712;28;101937;-47
2023/10/29 06:53:10;;;;;;;3.40;0.30;;;17.40;99.90;;;17.42;58.59;99048.06;4938997;28;98314;-48
2023/10/29 06:55:37;;;;;;;0.23;0.20;;;17.40;99.90;;;17.42;58.82;99058.72;4947253;28;102887;-48
2023/10/29 06:58:03;;;;;;;0.73;0.40;;;17.40;99.90;;;17.42;58.93;99048.06;4943052;28;97266;-49
2023/10/29 07:00:31;;;;;;;0.10;0.10;;;17.40;99.90;;;17.43;59.18;99054.22;4949397;27;97053;-49
2023/10/29 07:02:57;;;;;;;0.27;0.20;;;17.40;99.90;;;17.49;60.46;99054.50;4945604;28;97669;-46
2023/10/29 07:05:23;;;;;;;0.33;0.10;;;17.40;99.90;;;17.44;58.71;99056.75;4946350;28;103414;-48
2023/10/29 07:07:49;;;;;;;2.07;0.30;;;17.40;99.90;;;17.44;59.69;99054.09;4939906;28;101737;-48
2023/10/29 07:10:15;;;;;;;0.43;0.30;;;17.40;99.90;;;17.49;60.76;99065.19;4945738;27;108988;-47
2023/10/29 07:12:41;;;;;;;8.33;0.57;;;17.40;99.90;;;17.49;58.50;99075.84;4946741;28;98586;-53
2023/10/29 07:15:09;;;;;;;1.27;0.40;;;17.40;99.90;;;17.51;60.65;99086.41;4947170;28;97444;-45
2023/10/29 07:17:35;;;;;;;2.10;0.70;;;17.40;99.90;;;17.53;58.92;99087.09;4943782;28;98976;-45
2023/10/29 07:20:01;;;;;;;1.47;0.60;;;17.50;99.90;;;17.52;60.87;99086.25;4943788;28;103711;-45
2023/10/29 07:22:27;;;;;;;0.87;0.40;;;17.40;99.90;;;17.52;59.22;99086.25;4951139;28;98960;-44
2023/10/29 07:24:53;;;;;;;0.47;0.30;;;17.50;99.90;;;17.53;60.64;99098.59;4944542;28;102777;-46
2023/10/29 07:27:19;;;;;;;1.27;0.53;;;17.50;99.90;;;17.49;58.52;99098.97;4954147;27;96773;-45
2023/10/29 07:29:44;;;;;;;1.83;0.63;;;17.50;99.90;;;17.46;58.82;99094.78;4944601;28;98430;-46
2023/10/29 07:32:10;;;;;;;1.30;0.50;;;17.40;99.90;;;17.54;59.00;99091.44;4950337;28;101326;-48
2023/10/29 07:34:36;;;;;;;1.83;0.30;;;17.50;99.90;;;17.57;60.29;99082.31;4944249;28;97459;-46
2023/10/29 07:37:02;;;;;;;1.23;0.50;;;17.50;99.90;;;17.62;59.09;99091.59;4946420;28;96714;-45
2023/10/29 07:39:28;;;;;;;1.83;0.43;;;17.60;99.90;;;17.62;59.60;99101.41;4948182;28;97167;-46
2023/10/29 07:41:54;;;;;;;0.70;0.30;;;17.60;99.90;;;17.68;60.65;99100.88;4943844;28;99434;-45
2023/10/29 07:44:20;;;;;;;1.10;0.20;;;17.60;99.90;;;17.65;60.07;99095.78;4946293;28;97414;-48
2023/10/29 07:46:46;;;;;;;2.47;0.70;;;17.60;99.90;;;17.69;59.11;99102.59;4944039;28;101869;-49
2023/10/29 07:49:11;;;;;;;2.33;0.70;;;17.70;99.90;;;17.66;58.82;99084.19;4945434;28;97355;-48
2023/10/29 07:51:37;;;;;;;1.67;0.30;;;17.60;99.90;;;17.75;59.99;99094.03;4949295;28;97457;-46
2023/10/29 07:54:03;;;;;;;1.77;0.37;;;17.70;99.90;;;17.72;59.36;99128.97;4939861;28;97482;-45
2023/10/29 07:56:29;;;;;;;0.77;0.40;;;17.70;99.90;;;17.73;59.62;99130.66;4952101;27;97736;-47
2023/10/29 07:58:55;;;;;;;0.83;0.27;;;17.70;99.90;;;17.76;59.34;99141.88;4950900;27;112915;-45
2023/10/29 08:01:21;;;;;;;0.53;0.23;;;17.70;99.90;;;17.76;59.09;99141.06;4946285;28;97423;-47
2023/10/29 08:03:48;;;;;;;0.50;0.20;;;17.70;99.90;;;17.74;59.72;99148.34;4939440;28;97444;-48
2023/10/29 08:06:14;;;;;;;0.50;0.30;;;17.70;99.90;;;17.77;60.46;99137.41;4921170;28;99470;-46
2023/10/29 08:08:40;;;;;;;2.43;0.30;;;17.70;99.90;;;17.81;59.77;99126.34;4921674;28;99834;-50
2023/10/29 08:11:06;;;;;;;1.50;0.60;;;17.70;99.90;;;17.79;59.41;99130.09;4920763;28;97460;-45
2023/10/29 08:13:32;;;;;;;3.07;0.40;;;17.70;99.90;;;17.79;59.96;99154.09;4920989;28;98132;-48
2023/10/29 08:15:59;;;;;;;1.83;0.30;;;17.70;99.90;;;17.78;60.30;99145.25;4911821;28;98562;-47
2023/10/29 08:18:24;;;;;;;4.63;0.50;;;17.70;99.90;;;17.75;59.89;99140.22;4918759;28;97885;-50
2023/10/29 08:20:50;;;;;;;2.80;0.43;;;17.60;99.90;;;17.79;59.48;99133.66;4921092;28;97698;-48
2023/10/29 08:23:16;;;;;;;1.90;0.40;;;17.70;99.90;;;17.77;58.44;99134.72;4919508;27;97556;-46
2023/10/29 08:25:42;;;;;;;1.33;0.57;;;17.70;99.90;;;17.74;59.47;99143.00;4918601;28;99493;-54
2023/10/29 08:28:11;;;;;;;1.23;0.20;;;17.60;99.90;;;17.70;58.38;99146.94;4922411;28;114142;-47
2023/10/29 08:30:37;;;;;;;2.27;0.20;;;17.60;99.90;;;17.61;58.02;99158.38;4923021;28;98848;-48
2023/10/29 08:33:03;;;;;;;0.57;0.30;;;17.50;99.90;;;17.65;59.88;99159.78;4919287;28;97574;-45
2023/10/29 08:35:29;;;;;;;0.97;0.47;;;17.50;99.90;;;17.67;59.39;99160.50;4922800;28;97532;-49
2023/10/29 08:37:55;;;;;;;0.63;0.30;;;17.60;99.90;;;17.62;59.29;99157.41;4919604;28;97220;-49
2023/10/29 08:40:21;;;;;;;0.70;0.10;;;17.60;99.90;;;17.64;59.09;99158.09;4921045;28;98221;-51
2023/10/29 08:42:47;;;;;;;0.93;0.40;;;17.60;99.90;;;17.59;58.17;99155.00;4921749;28;97219;-49
2023/10/29 08:45:13;;;;;;;0.23;0.10;;;17.60;99.90;;;17.63;59.88;99151.91;4921934;28;97637;-48
2023/10/29 08:47:39;;;;;;;0.63;0.30;;;17.60;99.90;;;17.68;58.27;99171.06;4924331;28;97898;-49
2023/10/29 08:50:08;;;;;;;0.20;0.10;;;17.60;99.90;;;17.61;58.91;99183.22;4920524;27;107741;-47
2023/10/29 08:52:34;;;;;;;0.53;0.30;;;17.60;99.90;;;17.57;58.09;99179.13;4918873;28;97550;-47
2023/10/29 08:54:59;;;;;;;0.50;0.27;;;17.60;99.90;;;17.55;58.28;99181.94;4921952;28;98401;-46
2023/10/29 08:57:25;;;;;;;0.20;0.20;;;17.50;99.90;;;17.70;60.62;99185.13;4915510;28;101122;-49
2023/10/29 08:59:51;;;;;;;0.90;0.40;;;17.70;99.90;;;17.67;60.04;99184.50;4919392;28;98296;-47
2023/10/29 09:02:17;;;;;;;1.10;0.27;;;17.70;99.90;;;17.67;59.99;99193.34;4918978;28;112546;-47
2023/10/29 09:04:43;;;;;;;1.63;0.30;;;17.70;99.90;;;17.70;57.87;99189.59;4917164;27;97078;-48
2023/10/29 09:07:08;;;;;;;0.50;0.10;;;17.70;99.90;;;17.67;57.59;99195.19;4918962;28;98693;-47
2023/10/29 09:09:36;;;;;;;0.83;0.30;;;17.70;99.90;;;17.72;59.22;99183.16;4914715;28;97401;-45
2023/10/29 09:12:02;;;;;;;0.70;0.30;;;17.70;99.90;;;17.70;58.93;99184.28;4915688;28;97472;-45
2023/10/29 09:14:28;;;;;;;0.60;0.30;;;17.60;99.90;;;17.72;58.87;99199.16;4923322;28;104677;-45
2023/10/29 09:16:54;;;;;;;0.47;0.27;;;17.70;99.90;;;17.75;58.60;99214.03;4921479;28;98818;-49
2023/10/29 09:19:20;;;;;;;0.23;0.17;;;17.70;99.90;;;17.76;57.80;99210.38;4919349;28;97307;-49
2023/10/29 09:21:47;;;;;;;0.50;0.20;;;17.70;99.90;;;17.76;58.04;99227.22;4921180;28;98599;-50
2023/10/29 09:24:13;;;;;;;1.10;0.60;;;17.70;99.90;;;17.75;57.66;99230.03;4918390;28;99353;-49
2023/10/29 09:26:40;;;;;;;1.23;0.30;;;17.70;99.90;;;17.77;59.04;99220.06;4918091;28;98172;-46
2023/10/29 09:29:08;;;;;;;0.77;0.30;;;17.70;99.90;;;17.77;59.51;99228.91;4921940;28;98904;-47
2023/10/29 09:31:34;;;;;;;0.40;0.30;;;17.70;99.90;;;17.76;57.50;99221.03;4921847;28;97783;-45
2023/10/29 09:34:01;;;;;;;0.90;0.30;;;17.70;99.90;;;17.78;58.35;99219.09;4919920;28;97845;-48
2023/10/29 09:36:27;;;;;;;0.30;0.23;;;17.70;99.90;;;17.78;59.66;99221.75;4917819;27;101458;-47
2023/10/29 09:38:53;;;;;;;0.97;0.30;;;17.70;99.90;;;17.74;56.60;99223.84;4920747;28;97566;-49
2023/10/29 09:41:18;;;;;;;0.40;0.20;;;17.70;99.90;;;17.79;59.03;99200.31;4921917;27;98237;-51
2023/10/29 09:43:46;;;;;;;0.97;0.20;;;17.70;99.90;;;17.80;58.05;99190.50;4916993;28;97264;-49
2023/10/29 09:46:13;;;;;;;1.10;0.30;;;17.80;99.90;;;17.75;57.37;99192.69;4918641;28;99219;-47
2023/10/29 09:48:42;;;;;;;0.57;0.20;;;17.70;99.90;;;17.82;59.78;99193.84;4920124;28;97304;-48
2023/10/29 09:51:08;;;;;;;0.00;0.00;;;17.80;99.90;;;17.76;57.71;99186.38;4917508;28;98509;-48
2023/10/29 09:53:36;;;;;;;0.63;0.30;;;17.70;99.90;;;17.77;59.31;99207.56;4919485;28;99369;-47
2023/10/29 09:56:03;;;;;;;0.83;0.30;;;17.70;99.90;;;17.78;57.38;99219.09;4918476;28;100278;-48
2023/10/29 09:58:29;;;;;;;1.17;0.20;;;17.80;99.90;;;17.78;57.94;99219.09;4918025;27;97354;-45
2023/10/29 10:00:58;;;;;;;0.90;0.20;;;17.70;99.90;;;17.84;58.50;99215.91;4914522;27;97464;-48
2023/10/29 10:03:26;;;;;;;2.97;0.20;;;17.80;99.90;;;17.87;56.82;99222.78;4923379;28;99930;-44
2023/10/29 10:05:52;;;;;;;0.20;0.17;;;17.80;99.90;;;17.82;55.77;99217.84;4920874;28;97883;-48
2023/10/29 10:08:29;;;;;;;1.00;0.40;;;17.80;99.90;;;17.83;55.70;99227.53;4925287;28;99706;-47
2023/10/29 10:10:59;;;;;;;0.33;0.20;;;17.80;99.90;;;17.87;55.76;99230.78;4925660;28;99718;-49
2023/10/29 10:13:41;;;;;;;0.83;0.30;;;17.80;99.90;;;17.86;57.56;99221.94;4924123;28;97264;-48